createdAt,value
2022-11-29T00:00:10.560Z,13.30
2022-11-29T00:02:39.368Z,13.15
2022-11-29T00:05:10.221Z,11.47
2022-11-29T00:07:38.583Z,14.70
2022-11-29T00:10:08.214Z,10.18
2022-11-29T00:12:36.788Z,10.88
2022-11-29T00:15:05.608Z,11.63
2022-11-29T00:17:34.229Z,13.77
2022-11-29T00:20:02.492Z,14.13
2022-11-29T00:22:32.611Z,12.73
2022-11-29T00:25:01.191Z,13.30
2022-11-29T00:27:30.607Z,12.73
2022-11-29T00:29:59.267Z,14.27
2022-11-29T00:32:28.568Z,11.52
2022-11-29T00:34:59.448Z,11.32
2022-11-29T00:37:28.704Z,12.23
2022-11-29T00:39:58.725Z,11.63
2022-11-29T00:42:27.058Z,13.90
2022-11-29T00:44:55.656Z,10.50
2022-11-29T00:47:23.958Z,10.70
2022-11-29T00:49:52.254Z,11.10
2022-11-29T00:52:20.775Z,10.53
2022-11-29T00:54:49.051Z,10.52
2022-11-29T00:57:21.168Z,11.10
2022-11-29T00:59:49.428Z,9.48
2022-11-29T01:02:17.987Z,12.83
2022-11-29T01:04:47.723Z,10.88
2022-11-29T01:07:16.219Z,10.57
2022-11-29T01:09:44.690Z,10.65
2022-11-29T01:12:13.312Z,10.25
2022-11-29T01:14:43.743Z,12.63
2022-11-29T01:17:12.645Z,8.48
2022-11-29T01:19:50.941Z,11.00
2022-11-29T01:22:19.877Z,8.15
2022-11-29T01:24:48.553Z,9.60
2022-11-29T01:27:16.886Z,9.05
2022-11-29T01:29:47.421Z,12.77
2022-11-29T01:32:15.762Z,9.43
2022-11-29T01:34:44.898Z,12.33
2022-11-29T01:37:13.364Z,9.07
2022-11-29T01:39:41.659Z,9.23
2022-11-29T01:42:12.354Z,10.13
2022-11-29T01:45:20.270Z,11.13
2022-11-29T01:47:51.477Z,9.93
2022-11-29T01:50:20.842Z,9.70
2022-11-29T01:52:51.189Z,9.00
2022-11-29T01:55:21.622Z,8.48
2022-11-29T01:57:50.824Z,10.27
2022-11-29T02:00:21.680Z,7.18
2022-11-29T02:02:54.409Z,7.53
2022-11-29T02:05:23.476Z,7.93
2022-11-29T02:07:54.940Z,10.73
2022-11-29T02:10:27.326Z,9.00
2022-11-29T02:13:03.348Z,8.93
2022-11-29T02:15:44.630Z,8.90
2022-11-29T02:18:16.517Z,14.07
2022-11-29T02:21:12.818Z,9.48
2022-11-29T02:24:11.796Z,11.88
2022-11-29T02:27:11.040Z,10.93
2022-11-29T02:29:58.578Z,9.00
2022-11-29T02:32:55.527Z,12.38
2022-11-29T02:35:40.434Z,9.75
2022-11-29T02:38:26.988Z,9.38
2022-11-29T02:41:09.800Z,9.20
2022-11-29T02:44:11.212Z,9.55
2022-11-29T02:46:58.152Z,12.43
2022-11-29T02:49:54.903Z,7.93
2022-11-29T02:52:33.669Z,13.15
2022-11-29T02:55:11.003Z,6.20
2022-11-29T02:57:45.789Z,6.22
2022-11-29T03:00:17.317Z,8.55
2022-11-29T03:02:54.337Z,7.68
2022-11-29T03:05:32.118Z,7.10
2022-11-29T03:08:07.282Z,9.35
2022-11-29T03:10:47.759Z,8.20
2022-11-29T03:13:23.754Z,11.25
2022-11-29T03:16:00.854Z,10.25
2022-11-29T03:18:43.358Z,8.82
2022-11-29T03:21:22.137Z,6.70
2022-11-29T03:23:54.867Z,8.85
2022-11-29T03:26:31.044Z,8.50
2022-11-29T03:29:08.936Z,8.65
2022-11-29T03:31:40.359Z,7.65
2022-11-29T03:34:23.692Z,9.30
2022-11-29T03:37:01.588Z,5.97
2022-11-29T03:39:38.974Z,10.15
2022-11-29T03:42:13.769Z,10.10
2022-11-29T03:44:48.135Z,8.15
2022-11-29T03:47:19.995Z,9.13
2022-11-29T03:49:54.886Z,7.93
2022-11-29T03:52:30.753Z,9.23
2022-11-29T03:55:13.842Z,6.97
2022-11-29T03:57:51.472Z,7.68
2022-11-29T04:00:20.759Z,5.72
2022-11-29T04:03:21.168Z,6.33
2022-11-29T04:06:12.634Z,5.80
2022-11-29T04:08:56.994Z,6.18
2022-11-29T04:11:59.243Z,7.90
2022-11-29T04:15:02.104Z,9.10
2022-11-29T04:18:03.834Z,7.18
2022-11-29T04:21:02.604Z,7.72
2022-11-29T04:24:14.596Z,7.65
2022-11-29T04:27:11.562Z,7.03
2022-11-29T04:29:56.990Z,7.22
2022-11-29T04:33:04.286Z,9.20
2022-11-29T04:35:50.300Z,7.13
2022-11-29T04:38:55.137Z,9.10
2022-11-29T04:41:46.894Z,8.25
2022-11-29T04:44:45.269Z,9.30
2022-11-29T04:47:30.686Z,7.47
2022-11-29T04:50:15.791Z,7.67
2022-11-29T04:53:10.446Z,6.45
2022-11-29T04:55:46.900Z,9.00
2022-11-29T04:58:24.342Z,9.43
2022-11-29T05:01:01.105Z,8.57
2022-11-29T05:03:38.714Z,8.65
2022-11-29T05:06:20.504Z,8.38
2022-11-29T05:09:04.522Z,9.15
2022-11-29T05:11:42.730Z,7.25
2022-11-29T05:14:21.303Z,8.38
2022-11-29T05:17:02.776Z,6.03
2022-11-29T05:19:50.292Z,7.25
2022-11-29T05:22:37.290Z,5.40
2022-11-29T05:25:32.650Z,4.93
2022-11-29T05:28:10.201Z,6.95
2022-11-29T05:31:10.784Z,9.05
2022-11-29T05:34:05.796Z,7.73
2022-11-29T05:36:41.762Z,9.57
2022-11-29T05:39:30.595Z,7.07
2022-11-29T05:42:31.563Z,6.95
2022-11-29T05:45:06.708Z,5.90
2022-11-29T05:47:40.915Z,6.22
2022-11-29T05:50:20.223Z,7.05
2022-11-29T05:52:57.139Z,5.45
2022-11-29T05:55:36.301Z,8.63
2022-11-29T05:58:13.925Z,5.40
2022-11-29T06:00:49.997Z,7.20
2022-11-29T06:03:26.222Z,6.15
2022-11-29T06:06:01.456Z,8.20
2022-11-29T06:08:38.791Z,7.88
2022-11-29T06:11:15.652Z,8.45
2022-11-29T06:14:13.495Z,8.38
2022-11-29T06:17:07.782Z,5.90
2022-11-29T06:20:09.154Z,6.53
2022-11-29T06:25:48.654Z,7.03
2022-11-29T06:28:36.728Z,7.38
2022-11-29T06:31:17.364Z,6.20
2022-11-29T06:33:56.405Z,9.57
2022-11-29T06:36:30.622Z,8.32
2022-11-29T06:39:00.764Z,5.57
2022-11-29T06:41:31.271Z,8.02
2022-11-29T06:44:00.180Z,7.82
2022-11-29T06:46:39.509Z,6.05
2022-11-29T06:49:13.921Z,7.07
2022-11-29T06:51:50.958Z,9.93
2022-11-29T06:54:43.719Z,8.00
2022-11-29T06:57:21.483Z,9.48
2022-11-29T07:00:03.687Z,8.00
2022-11-29T07:03:03.101Z,7.68
2022-11-29T07:05:32.733Z,5.10
2022-11-29T07:08:05.087Z,8.20
2022-11-29T07:10:37.431Z,7.97
2022-11-29T07:13:08.134Z,8.90
2022-11-29T07:15:42.068Z,5.50
2022-11-29T07:18:18.515Z,6.30
2022-11-29T07:21:00.823Z,7.57
2022-11-29T07:23:36.982Z,6.97
2022-11-29T07:26:18.920Z,6.80
2022-11-29T07:29:13.410Z,5.82
2022-11-29T07:31:51.091Z,5.70
2022-11-29T07:34:24.561Z,7.47
2022-11-29T07:37:03.587Z,5.45
2022-11-29T07:39:42.773Z,7.68
2022-11-29T07:42:20.428Z,6.82
2022-11-29T07:45:09.043Z,4.85
2022-11-29T07:47:37.441Z,4.95
2022-11-29T07:50:06.683Z,5.60
2022-11-29T07:52:36.747Z,5.93
2022-11-29T07:55:05.983Z,4.07
2022-11-29T07:57:36.595Z,7.88
2022-11-29T08:00:11.761Z,6.90
2022-11-29T08:02:41.040Z,8.05
2022-11-29T08:05:10.457Z,5.72
2022-11-29T08:07:40.752Z,6.47
2022-11-29T08:10:13.498Z,6.63
2022-11-29T08:12:46.284Z,7.95
2022-11-29T08:15:16.995Z,8.48
2022-11-29T08:17:45.934Z,5.53
2022-11-29T08:20:17.604Z,7.35
2022-11-29T08:22:45.832Z,22.05
2022-11-29T08:25:14.905Z,6.80
2022-11-29T08:27:43.753Z,9.05
2022-11-29T08:30:12.684Z,13.00
2022-11-29T08:32:44.837Z,12.10
2022-11-29T08:35:16.980Z,6.10
2022-11-29T08:37:46.709Z,9.35
2022-11-29T08:40:15.880Z,18.63
2022-11-29T08:42:44.561Z,18.63
2022-11-29T08:45:13.683Z,18.55
2022-11-29T08:47:43.734Z,9.73
2022-11-29T08:50:16.077Z,8.80
2022-11-29T08:53:09.796Z,9.33
2022-11-29T08:55:42.743Z,11.85
2022-11-29T08:58:16.835Z,7.70
2022-11-29T09:00:48.234Z,5.03
2022-11-29T09:03:36.279Z,7.33
2022-11-29T09:06:11.964Z,8.65
2022-11-29T09:08:43.636Z,9.18
2022-11-29T09:11:15.496Z,7.13
2022-11-29T09:13:45.434Z,7.30
2022-11-29T09:16:18.037Z,8.80
2022-11-29T09:18:52.203Z,7.20
2022-11-29T09:21:22.578Z,6.28
2022-11-29T09:23:51.241Z,9.20
2022-11-29T09:26:21.441Z,6.47
2022-11-29T09:28:52.089Z,6.45
2022-11-29T09:31:23.896Z,6.03
2022-11-29T09:33:53.866Z,7.80
2022-11-29T09:36:28.573Z,7.45
2022-11-29T09:39:02.696Z,6.00
2022-11-29T09:41:53.333Z,6.57
2022-11-29T09:44:29.039Z,7.45
2022-11-29T09:47:05.079Z,5.28
2022-11-29T09:50:04.132Z,7.35
2022-11-29T09:52:44.572Z,6.47
2022-11-29T09:55:40.294Z,7.50
2022-11-29T09:58:17.923Z,7.43
2022-11-29T10:00:51.216Z,9.68
2022-11-29T10:03:25.582Z,6.53
2022-11-29T10:05:59.777Z,6.85
2022-11-29T10:08:33.953Z,4.85
2022-11-29T10:11:17.261Z,6.55
2022-11-29T10:13:51.166Z,6.50
2022-11-29T10:16:26.615Z,7.68
2022-11-29T10:19:04.586Z,6.32
2022-11-29T10:21:37.805Z,7.78
2022-11-29T10:24:13.532Z,6.80
2022-11-29T10:26:43.674Z,6.47
2022-11-29T10:29:15.400Z,11.90
2022-11-29T10:31:49.344Z,6.45
2022-11-29T10:34:19.630Z,11.80
2022-11-29T10:36:54.054Z,7.10
2022-11-29T10:39:37.421Z,8.63
2022-11-29T10:42:27.944Z,9.77
2022-11-29T10:44:58.352Z,7.43
2022-11-29T10:47:26.847Z,5.60
2022-11-29T10:49:56.893Z,8.02
2022-11-29T10:52:26.610Z,7.90
2022-11-29T10:54:59.798Z,8.75
2022-11-29T10:57:29.436Z,9.02
2022-11-29T11:00:04.399Z,8.45
2022-11-29T11:02:33.661Z,10.00
2022-11-29T11:05:03.109Z,11.10
2022-11-29T11:07:35.803Z,13.18
2022-11-29T11:10:08.132Z,12.70
2022-11-29T11:12:38.086Z,11.27
2022-11-29T11:15:28.741Z,10.93
2022-11-29T11:17:59.062Z,9.75
2022-11-29T11:20:32.038Z,9.43
2022-11-29T11:23:03.792Z,14.93
2022-11-29T11:25:34.772Z,11.13
2022-11-29T11:28:18.415Z,10.70
2022-11-29T11:30:52.651Z,7.10
2022-11-29T11:33:25.533Z,8.98
2022-11-29T11:36:24.161Z,8.73
2022-11-29T11:38:55.601Z,7.50
2022-11-29T11:41:48.909Z,7.13
2022-11-29T11:44:46.710Z,5.90
2022-11-29T11:47:21.429Z,5.93
2022-11-29T11:49:54.956Z,4.28
2022-11-29T11:52:26.003Z,4.57
2022-11-29T11:55:05.751Z,4.97
2022-11-29T11:57:34.416Z,4.20
2022-11-29T12:00:07.317Z,2.22
2022-11-29T12:02:39.993Z,3.37
2022-11-29T12:05:17.106Z,4.32
2022-11-29T12:10:44.392Z,2.75
2022-11-29T12:13:21.355Z,3.63
2022-11-29T12:15:52.260Z,3.80
2022-11-29T12:18:31.779Z,6.25
2022-11-29T12:21:08.480Z,3.88
2022-11-29T12:23:45.267Z,5.40
2022-11-29T12:26:48.923Z,3.55
2022-11-29T12:29:15.302Z,3.38
2022-11-29T12:31:55.445Z,4.03
2022-11-29T12:34:49.474Z,3.10
2022-11-29T12:37:26.566Z,5.18
2022-11-29T12:40:02.734Z,3.03
2022-11-29T12:42:50.743Z,3.90
2022-11-29T12:45:38.565Z,3.30
2022-11-29T12:48:19.950Z,3.35
2022-11-29T12:50:57.023Z,4.85
2022-11-29T12:53:43.751Z,3.70
2022-11-29T12:56:22.766Z,3.73
2022-11-29T12:59:15.380Z,3.50
2022-11-29T13:02:02.593Z,2.47
2022-11-29T13:04:40.106Z,2.40
2022-11-29T13:07:22.112Z,2.40
2022-11-29T13:10:32.145Z,3.43
2022-11-29T13:13:09.793Z,3.50
2022-11-29T13:15:53.034Z,3.40
2022-11-29T13:18:28.213Z,2.85
2022-11-29T13:21:07.683Z,5.60
2022-11-29T13:26:32.977Z,2.63
2022-11-29T13:29:03.302Z,2.30
2022-11-29T13:31:34.421Z,2.63
2022-11-29T13:34:09.223Z,3.95
2022-11-29T13:36:55.182Z,2.22
2022-11-29T13:39:37.564Z,2.58
2022-11-29T13:42:12.686Z,2.15
2022-11-29T13:44:48.370Z,2.40
2022-11-29T13:47:20.099Z,1.80
2022-11-29T13:49:56.196Z,2.83
2022-11-29T13:52:42.285Z,2.25
2022-11-29T13:55:32.582Z,2.28
2022-11-29T13:58:22.252Z,1.63
2022-11-29T14:00:53.115Z,2.40
2022-11-29T14:03:40.789Z,2.77
2022-11-29T14:06:21.307Z,2.22
2022-11-29T14:09:26.572Z,2.05
2022-11-29T14:12:04.329Z,1.70
2022-11-29T14:14:39.096Z,1.67
2022-11-29T14:17:28.372Z,2.22
2022-11-29T14:20:51.615Z,4.75
2022-11-29T14:23:36.687Z,2.35
2022-11-29T14:26:30.164Z,1.60
2022-11-29T14:29:00.226Z,3.10
2022-11-29T14:31:51.864Z,2.17
2022-11-29T14:34:37.588Z,1.73
2022-11-29T14:37:25.239Z,2.67
2022-11-29T14:39:59.430Z,2.10
2022-11-29T14:42:29.972Z,3.22
2022-11-29T14:45:02.268Z,2.95
2022-11-29T14:47:34.500Z,2.22
2022-11-29T14:50:07.526Z,1.80
2022-11-29T14:52:41.258Z,3.65
2022-11-29T14:55:30.357Z,2.22
2022-11-29T14:58:18.355Z,2.67
2022-11-29T15:01:11.522Z,3.03
2022-11-29T15:03:51.104Z,3.70
2022-11-29T15:06:28.479Z,3.88
2022-11-29T15:09:04.777Z,2.83
2022-11-29T15:11:49.598Z,2.50
2022-11-29T15:14:24.306Z,3.63
2022-11-29T15:17:17.818Z,5.95
2022-11-29T15:20:29.362Z,4.45
2022-11-29T15:23:01.002Z,5.20
2022-11-29T15:25:32.519Z,5.93
2022-11-29T15:28:02.231Z,6.22
2022-11-29T15:30:35.698Z,4.53
2022-11-29T15:33:07.557Z,3.70
2022-11-29T15:35:37.675Z,5.75
2022-11-29T15:38:05.978Z,4.28
2022-11-29T15:40:37.348Z,2.58
2022-11-29T15:43:16.519Z,3.22
2022-11-29T15:45:50.377Z,4.25
2022-11-29T15:48:21.335Z,3.58
2022-11-29T15:50:54.971Z,3.97
2022-11-29T15:53:27.518Z,5.32
2022-11-29T15:55:59.490Z,12.60
2022-11-29T15:58:31.777Z,7.55
2022-11-29T16:01:03.335Z,6.43
2022-11-29T16:03:37.196Z,4.27
2022-11-29T16:06:09.972Z,9.43
2022-11-29T16:08:43.447Z,4.55
2022-11-29T16:11:19.215Z,5.13
2022-11-29T16:14:06.194Z,7.18
2022-11-29T16:16:37.723Z,8.43
2022-11-29T16:19:23.007Z,22.02
2022-11-29T16:22:08.734Z,30.42
2022-11-29T16:24:39.257Z,21.38
2022-11-29T16:27:09.560Z,14.70
2022-11-29T16:29:43.103Z,20.93
2022-11-29T16:32:17.301Z,18.23
2022-11-29T16:34:46.807Z,21.77
2022-11-29T16:37:20.061Z,25.30
2022-11-29T16:39:51.051Z,25.80
2022-11-29T16:42:26.017Z,25.60
2022-11-29T16:45:09.715Z,25.90
2022-11-29T16:48:01.649Z,30.10
2022-11-29T16:50:31.330Z,25.83
2022-11-29T16:53:35.115Z,33.33
2022-11-29T16:56:07.047Z,30.55
2022-11-29T16:59:20.956Z,33.75
2022-11-29T17:01:30.139Z,28.40
2022-11-29T17:03:59.713Z,28.65
2022-11-29T17:06:30.024Z,35.57
2022-11-29T17:09:00.098Z,30.27
2022-11-29T17:11:29.118Z,33.03
2022-11-29T17:13:58.789Z,33.50
2022-11-29T17:16:27.291Z,24.67
2022-11-29T17:18:55.875Z,26.13
2022-11-29T17:21:25.904Z,26.55
2022-11-29T17:23:56.466Z,19.20
2022-11-29T17:26:25.636Z,23.20
2022-11-29T17:28:54.303Z,22.20
2022-11-29T17:31:25.796Z,23.08
2022-11-29T17:33:54.403Z,35.97
2022-11-29T17:36:24.442Z,25.98
2022-11-29T17:38:52.872Z,24.67
2022-11-29T17:41:26.253Z,31.55
2022-11-29T17:43:56.791Z,28.88
2022-11-29T17:46:28.492Z,26.95
2022-11-29T17:48:59.455Z,24.25
2022-11-29T17:54:16.491Z,27.95
2022-11-29T17:59:27.078Z,36.03
2022-11-29T18:01:56.913Z,43.88
2022-11-29T18:04:25.187Z,68.28
2022-11-29T18:06:58.834Z,69.10
2022-11-29T18:09:28.212Z,93.45
2022-11-29T18:11:56.992Z,95.38
2022-11-29T18:14:28.395Z,83.30
2022-11-29T18:16:58.644Z,84.82
2022-11-29T18:19:28.061Z,60.85
2022-11-29T18:21:58.169Z,75.50
2022-11-29T18:24:26.726Z,85.15
2022-11-29T18:26:54.949Z,67.90
2022-11-29T18:29:23.337Z,74.82
2022-11-29T18:31:54.274Z,74.80
2022-11-29T18:34:24.194Z,78.93
2022-11-29T18:36:52.922Z,114.65
2022-11-29T18:39:23.630Z,89.32
2022-11-29T18:41:53.053Z,105.15
2022-11-29T18:44:24.343Z,103.50
2022-11-29T18:46:52.663Z,80.85
2022-11-29T18:49:21.790Z,74.60
2022-11-29T18:51:51.971Z,80.72
2022-11-29T18:54:20.521Z,74.68
2022-11-29T18:56:51.765Z,74.05
2022-11-29T18:59:20.084Z,72.18
2022-11-29T19:01:49.457Z,69.15
2022-11-29T19:04:23.104Z,69.18
2022-11-29T19:06:53.426Z,69.18
2022-11-29T19:09:23.369Z,66.07
2022-11-29T19:11:52.114Z,61.45
2022-11-29T19:14:21.328Z,56.80
2022-11-29T19:16:51.295Z,57.30
2022-11-29T19:19:20.170Z,60.92
2022-11-29T19:21:48.971Z,49.42
2022-11-29T19:24:19.984Z,56.97
2022-11-29T19:26:49.304Z,54.30
2022-11-29T19:29:17.915Z,56.50
2022-11-29T19:31:46.242Z,56.57
2022-11-29T19:34:15.139Z,58.60
2022-11-29T19:36:45.022Z,56.28
2022-11-29T19:39:15.595Z,56.25
2022-11-29T19:41:47.597Z,53.17
2022-11-29T19:44:15.920Z,58.78
2022-11-29T19:46:47.271Z,51.78
2022-11-29T19:49:15.525Z,55.07
2022-11-29T19:51:46.799Z,60.42
2022-11-29T19:54:15.080Z,95.63
2022-11-29T19:56:44.763Z,99.07
2022-11-29T19:59:13.103Z,88.30
2022-11-29T20:01:42.895Z,83.22
2022-11-29T20:04:15.561Z,71.50
2022-11-29T20:06:45.993Z,72.10
2022-11-29T20:09:15.105Z,67.97
2022-11-29T20:11:45.095Z,64.17
2022-11-29T20:14:14.732Z,58.58
2022-11-29T20:16:44.781Z,62.92
2022-11-29T20:19:15.041Z,61.60
2022-11-29T20:21:46.369Z,78.75
2022-11-29T20:24:15.674Z,84.03
2022-11-29T20:26:49.787Z,89.23
2022-11-29T20:29:19.371Z,84.85
2022-11-29T20:31:50.807Z,82.68
2022-11-29T20:34:20.844Z,99.63
2022-11-29T20:37:11.362Z,109.20
2022-11-29T20:39:47.127Z,69.68
2022-11-29T20:42:37.174Z,53.90
2022-11-29T20:45:10.077Z,50.90
2022-11-29T20:47:46.426Z,44.22
2022-11-29T20:50:22.876Z,43.87
2022-11-29T20:53:03.267Z,46.60
2022-11-29T20:55:32.759Z,40.70
2022-11-29T20:58:04.133Z,41.70
2022-11-29T21:00:33.164Z,41.60
2022-11-29T21:03:01.480Z,46.93
2022-11-29T21:05:29.750Z,58.72
2022-11-29T21:07:58.609Z,45.67
2022-11-29T21:10:29.795Z,53.30
2022-11-29T21:12:58.647Z,54.72
2022-11-29T21:15:29.433Z,60.53
2022-11-29T21:17:58.523Z,62.50
2022-11-29T21:20:28.527Z,58.67
2022-11-29T21:23:06.119Z,68.82
2022-11-29T21:25:44.174Z,74.80
2022-11-29T21:28:14.796Z,75.70
2022-11-29T21:30:46.837Z,67.00
2022-11-29T21:33:15.735Z,64.43
2022-11-29T21:35:44.279Z,61.90
2022-11-29T21:38:20.683Z,65.18
2022-11-29T21:40:49.485Z,65.47
2022-11-29T21:43:18.089Z,60.90
2022-11-29T21:45:51.415Z,63.28
2022-11-29T21:48:42.332Z,60.03
2022-11-29T21:51:12.297Z,59.88
2022-11-29T21:53:42.368Z,62.55
2022-11-29T21:56:12.055Z,64.70
2022-11-29T21:58:41.187Z,62.00
2022-11-29T22:01:14.001Z,67.15
2022-11-29T22:03:43.847Z,72.60
2022-11-29T22:06:13.608Z,61.70
2022-11-29T22:08:45.449Z,60.83
2022-11-29T22:11:15.359Z,73.47
2022-11-29T22:13:59.193Z,65.95
2022-11-29T22:16:29.741Z,60.45
2022-11-29T22:18:58.296Z,47.45
2022-11-29T22:21:30.066Z,44.40
2022-11-29T22:23:58.661Z,51.30
2022-11-29T22:26:28.596Z,41.97
2022-11-29T22:28:56.871Z,48.58
2022-11-29T22:31:25.171Z,44.80
2022-11-29T22:33:56.387Z,40.97
2022-11-29T22:36:29.255Z,44.92
2022-11-29T22:38:58.043Z,45.05
2022-11-29T22:41:26.645Z,47.83
2022-11-29T22:43:55.291Z,45.25
2022-11-29T22:46:25.003Z,46.72
2022-11-29T22:48:56.556Z,44.55
2022-11-29T22:51:27.039Z,44.20
2022-11-29T22:53:58.303Z,50.72
2022-11-29T22:56:28.551Z,55.53
2022-11-29T22:58:57.810Z,49.13
2022-11-29T23:01:27.593Z,47.47
2022-11-29T23:03:59.012Z,49.22
2022-11-29T23:06:29.223Z,47.95
2022-11-29T23:08:59.147Z,49.42
2022-11-29T23:11:31.391Z,57.30
2022-11-29T23:14:01.022Z,56.23
2022-11-29T23:16:31.081Z,59.13
2022-11-29T23:19:01.345Z,50.55
2022-11-29T23:21:31.813Z,45.17
2022-11-29T23:24:01.595Z,51.22
2022-11-29T23:26:34.000Z,45.78
2022-11-29T23:29:02.392Z,41.77
2022-11-29T23:31:30.905Z,44.75
2022-11-29T23:34:01.013Z,45.13
2022-11-29T23:36:29.548Z,44.70
2022-11-29T23:38:58.337Z,41.90
2022-11-29T23:41:26.780Z,42.08
2022-11-29T23:43:55.621Z,41.65
2022-11-29T23:46:25.361Z,34.47
2022-11-29T23:48:54.570Z,36.42
2022-11-29T23:51:25.489Z,35.40
2022-11-29T23:53:56.838Z,34.53
2022-11-29T23:56:25.159Z,28.88
2022-11-29T23:58:54.845Z,32.97
